sensor_id;sensor_type;location;lat;lon;timestamp;P1;durP1;ratioP1;P2;durP2;ratioP2
60582;SDS011;46415;47.536;19.066;2022-11-20T00:01:23;9.73;;;4.05;;
60582;SDS011;46415;47.536;19.066;2022-11-20T00:04:27;7.53;;;5.45;;
60582;SDS011;46415;47.536;19.066;2022-11-20T00:07:30;8.18;;;5.40;;
60582;SDS011;46415;47.536;19.066;2022-11-20T00:10:35;8.40;;;5.80;;
60582;SDS011;46415;47.536;19.066;2022-11-20T00:13:38;10.10;;;5.65;;
60582;SDS011;46415;47.536;19.066;2022-11-20T00:16:41;6.80;;;4.47;;
60582;SDS011;46415;47.536;19.066;2022-11-20T00:19:44;7.18;;;4.35;;
60582;SDS011;46415;47.536;19.066;2022-11-20T00:22:47;13.57;;;4.80;;
60582;SDS011;46415;47.536;19.066;2022-11-20T00:25:49;6.45;;;4.10;;
60582;SDS011;46415;47.536;19.066;2022-11-20T00:28:53;10.55;;;4.85;;
60582;SDS011;46415;47.536;19.066;2022-11-20T00:31:57;7.05;;;4.68;;
60582;SDS011;46415;47.536;19.066;2022-11-20T00:34:59;9.15;;;4.05;;
60582;SDS011;46415;47.536;19.066;2022-11-20T00:38:02;9.10;;;5.40;;
60582;SDS011;46415;47.536;19.066;2022-11-20T00:41:06;16.33;;;8.18;;
60582;SDS011;46415;47.536;19.066;2022-11-20T00:44:10;5.87;;;3.25;;
60582;SDS011;46415;47.536;19.066;2022-11-20T00:47:13;11.07;;;4.95;;
60582;SDS011;46415;47.536;19.066;2022-11-20T00:50:15;7.00;;;4.80;;
60582;SDS011;46415;47.536;19.066;2022-11-20T00:53:18;7.10;;;4.90;;
60582;SDS011;46415;47.536;19.066;2022-11-20T00:56:21;11.82;;;6.15;;
60582;SDS011;46415;47.536;19.066;2022-11-20T00:59:24;5.10;;;4.68;;
60582;SDS011;46415;47.536;19.066;2022-11-20T01:02:26;8.18;;;5.60;;
60582;SDS011;46415;47.536;19.066;2022-11-20T01:05:33;12.52;;;5.65;;
60582;SDS011;46415;47.536;19.066;2022-11-20T01:08:37;7.43;;;5.03;;
60582;SDS011;46415;47.536;19.066;2022-11-20T01:11:41;10.10;;;5.45;;
60582;SDS011;46415;47.536;19.066;2022-11-20T01:14:46;8.55;;;5.07;;
60582;SDS011;46415;47.536;19.066;2022-11-20T01:17:49;11.02;;;7.30;;
60582;SDS011;46415;47.536;19.066;2022-11-20T01:20:52;8.45;;;5.47;;
60582;SDS011;46415;47.536;19.066;2022-11-20T01:23:55;8.15;;;4.87;;
60582;SDS011;46415;47.536;19.066;2022-11-20T01:26:58;8.80;;;5.07;;
60582;SDS011;46415;47.536;19.066;2022-11-20T01:30:01;7.28;;;5.20;;
60582;SDS011;46415;47.536;19.066;2022-11-20T01:33:03;10.70;;;7.28;;
60582;SDS011;46415;47.536;19.066;2022-11-20T01:36:06;8.02;;;4.78;;
60582;SDS011;46415;47.536;19.066;2022-11-20T01:39:11;10.68;;;5.05;;
60582;SDS011;46415;47.536;19.066;2022-11-20T01:42:16;10.30;;;4.55;;
60582;SDS011;46415;47.536;19.066;2022-11-20T01:49:02;12.63;;;5.62;;
60582;SDS011;46415;47.536;19.066;2022-11-20T01:52:24;6.85;;;3.35;;
60582;SDS011;46415;47.536;19.066;2022-11-20T01:55:32;11.45;;;6.10;;
60582;SDS011;46415;47.536;19.066;2022-11-20T01:58:43;10.90;;;5.43;;
60582;SDS011;46415;47.536;19.066;2022-11-20T02:01:51;11.45;;;5.62;;
60582;SDS011;46415;47.536;19.066;2022-11-20T02:04:55;17.33;;;6.93;;
60582;SDS011;46415;47.536;19.066;2022-11-20T02:08:03;12.07;;;7.90;;
60582;SDS011;46415;47.536;19.066;2022-11-20T02:11:08;10.50;;;6.75;;
60582;SDS011;46415;47.536;19.066;2022-11-20T02:14:10;18.35;;;6.65;;
60582;SDS011;46415;47.536;19.066;2022-11-20T02:17:14;17.60;;;7.07;;
60582;SDS011;46415;47.536;19.066;2022-11-20T02:20:16;9.55;;;5.18;;
60582;SDS011;46415;47.536;19.066;2022-11-20T02:26:22;9.00;;;6.90;;
60582;SDS011;46415;47.536;19.066;2022-11-20T02:29:27;10.50;;;5.18;;
60582;SDS011;46415;47.536;19.066;2022-11-20T02:32:35;9.95;;;5.03;;
60582;SDS011;46415;47.536;19.066;2022-11-20T02:35:40;10.40;;;5.85;;
60582;SDS011;46415;47.536;19.066;2022-11-20T02:38:44;9.02;;;4.87;;
60582;SDS011;46415;47.536;19.066;2022-11-20T02:41:47;9.00;;;6.05;;
60582;SDS011;46415;47.536;19.066;2022-11-20T02:44:50;10.75;;;5.32;;
60582;SDS011;46415;47.536;19.066;2022-11-20T02:47:53;13.32;;;6.53;;
60582;SDS011;46415;47.536;19.066;2022-11-20T02:50:56;11.82;;;6.20;;
60582;SDS011;46415;47.536;19.066;2022-11-20T02:53:59;12.95;;;5.93;;
60582;SDS011;46415;47.536;19.066;2022-11-20T02:57:01;10.02;;;6.70;;
60582;SDS011;46415;47.536;19.066;2022-11-20T03:00:04;16.02;;;7.07;;
60582;SDS011;46415;47.536;19.066;2022-11-20T03:03:08;17.42;;;6.72;;
60582;SDS011;46415;47.536;19.066;2022-11-20T03:06:11;11.38;;;5.70;;
60582;SDS011;46415;47.536;19.066;2022-11-20T03:09:14;10.30;;;6.25;;
60582;SDS011;46415;47.536;19.066;2022-11-20T03:12:16;12.60;;;6.25;;
60582;SDS011;46415;47.536;19.066;2022-11-20T03:15:19;8.25;;;5.82;;
60582;SDS011;46415;47.536;19.066;2022-11-20T03:18:22;11.95;;;7.05;;
60582;SDS011;46415;47.536;19.066;2022-11-20T03:21:24;12.20;;;7.12;;
60582;SDS011;46415;47.536;19.066;2022-11-20T03:24:27;16.58;;;7.22;;
60582;SDS011;46415;47.536;19.066;2022-11-20T03:27:34;14.05;;;7.03;;
60582;SDS011;46415;47.536;19.066;2022-11-20T03:30:37;12.37;;;7.12;;
60582;SDS011;46415;47.536;19.066;2022-11-20T03:33:40;9.90;;;5.40;;
60582;SDS011;46415;47.536;19.066;2022-11-20T03:36:44;9.13;;;4.57;;
60582;SDS011;46415;47.536;19.066;2022-11-20T03:39:47;15.90;;;6.70;;
60582;SDS011;46415;47.536;19.066;2022-11-20T03:42:49;7.75;;;5.37;;
60582;SDS011;46415;47.536;19.066;2022-11-20T03:46:00;8.73;;;5.43;;
60582;SDS011;46415;47.536;19.066;2022-11-20T03:49:04;12.20;;;8.10;;
60582;SDS011;46415;47.536;19.066;2022-11-20T03:52:06;15.30;;;8.75;;
60582;SDS011;46415;47.536;19.066;2022-11-20T03:55:09;10.38;;;6.30;;
60582;SDS011;46415;47.536;19.066;2022-11-20T03:58:12;12.57;;;5.68;;
60582;SDS011;46415;47.536;19.066;2022-11-20T04:01:16;8.57;;;5.65;;
60582;SDS011;46415;47.536;19.066;2022-11-20T04:04:22;10.63;;;6.62;;
60582;SDS011;46415;47.536;19.066;2022-11-20T04:07:24;10.65;;;6.80;;
60582;SDS011;46415;47.536;19.066;2022-11-20T04:10:27;10.02;;;6.47;;
60582;SDS011;46415;47.536;19.066;2022-11-20T04:13:30;15.30;;;6.50;;
60582;SDS011;46415;47.536;19.066;2022-11-20T04:16:33;17.52;;;10.15;;
60582;SDS011;46415;47.536;19.066;2022-11-20T04:19:38;10.82;;;6.43;;
60582;SDS011;46415;47.536;19.066;2022-11-20T04:22:40;13.82;;;6.87;;
60582;SDS011;46415;47.536;19.066;2022-11-20T04:25:43;11.07;;;7.00;;
60582;SDS011;46415;47.536;19.066;2022-11-20T04:28:46;8.00;;;5.32;;
60582;SDS011;46415;47.536;19.066;2022-11-20T04:31:48;6.60;;;4.00;;
60582;SDS011;46415;47.536;19.066;2022-11-20T04:34:51;8.32;;;5.87;;
60582;SDS011;46415;47.536;19.066;2022-11-20T04:37:54;10.88;;;5.87;;
60582;SDS011;46415;47.536;19.066;2022-11-20T04:40:57;8.82;;;5.85;;
60582;SDS011;46415;47.536;19.066;2022-11-20T04:44:04;10.30;;;7.35;;
60582;SDS011;46415;47.536;19.066;2022-11-20T04:47:08;15.57;;;6.53;;
60582;SDS011;46415;47.536;19.066;2022-11-20T04:50:10;8.43;;;5.62;;
60582;SDS011;46415;47.536;19.066;2022-11-20T04:53:13;8.32;;;5.70;;
60582;SDS011;46415;47.536;19.066;2022-11-20T04:56:16;18.17;;;6.45;;
60582;SDS011;46415;47.536;19.066;2022-11-20T04:59:19;10.57;;;6.37;;
60582;SDS011;46415;47.536;19.066;2022-11-20T05:02:22;8.68;;;5.25;;
60582;SDS011;46415;47.536;19.066;2022-11-20T05:05:25;14.87;;;6.97;;
60582;SDS011;46415;47.536;19.066;2022-11-20T05:08:28;10.45;;;5.65;;
60582;SDS011;46415;47.536;19.066;2022-11-20T05:11:31;9.73;;;5.78;;
60582;SDS011;46415;47.536;19.066;2022-11-20T05:14:34;6.72;;;4.82;;
60582;SDS011;46415;47.536;19.066;2022-11-20T05:17:37;11.55;;;6.55;;
60582;SDS011;46415;47.536;19.066;2022-11-20T05:20:40;12.75;;;6.72;;
60582;SDS011;46415;47.536;19.066;2022-11-20T05:23:43;10.60;;;7.05;;
60582;SDS011;46415;47.536;19.066;2022-11-20T05:26:46;10.82;;;5.55;;
60582;SDS011;46415;47.536;19.066;2022-11-20T05:29:49;12.85;;;8.55;;
60582;SDS011;46415;47.536;19.066;2022-11-20T05:32:51;12.88;;;6.05;;
60582;SDS011;46415;47.536;19.066;2022-11-20T05:35:57;10.68;;;5.78;;
60582;SDS011;46415;47.536;19.066;2022-11-20T05:39:00;10.77;;;6.70;;
60582;SDS011;46415;47.536;19.066;2022-11-20T05:42:03;12.07;;;6.65;;
60582;SDS011;46415;47.536;19.066;2022-11-20T05:45:24;13.23;;;6.37;;
60582;SDS011;46415;47.536;19.066;2022-11-20T05:48:27;15.25;;;6.00;;
60582;SDS011;46415;47.536;19.066;2022-11-20T05:51:30;8.77;;;5.18;;
60582;SDS011;46415;47.536;19.066;2022-11-20T05:54:32;11.32;;;6.40;;
60582;SDS011;46415;47.536;19.066;2022-11-20T05:57:35;11.57;;;6.95;;
60582;SDS011;46415;47.536;19.066;2022-11-20T06:00:38;12.55;;;6.72;;
60582;SDS011;46415;47.536;19.066;2022-11-20T06:03:41;15.88;;;6.97;;
60582;SDS011;46415;47.536;19.066;2022-11-20T06:06:45;12.45;;;6.40;;
60582;SDS011;46415;47.536;19.066;2022-11-20T06:09:48;11.70;;;5.68;;
60582;SDS011;46415;47.536;19.066;2022-11-20T06:12:50;13.68;;;6.55;;
60582;SDS011;46415;47.536;19.066;2022-11-20T06:15:53;10.65;;;5.97;;
60582;SDS011;46415;47.536;19.066;2022-11-20T06:18:56;9.00;;;4.97;;
60582;SDS011;46415;47.536;19.066;2022-11-20T06:21:58;10.45;;;5.18;;
60582;SDS011;46415;47.536;19.066;2022-11-20T06:25:01;14.23;;;7.03;;
60582;SDS011;46415;47.536;19.066;2022-11-20T06:28:04;7.90;;;4.20;;
60582;SDS011;46415;47.536;19.066;2022-11-20T06:31:07;12.20;;;7.10;;
60582;SDS011;46415;47.536;19.066;2022-11-20T06:34:12;6.28;;;5.00;;
60582;SDS011;46415;47.536;19.066;2022-11-20T06:37:15;7.78;;;4.72;;
60582;SDS011;46415;47.536;19.066;2022-11-20T06:40:18;8.07;;;5.30;;
60582;SDS011;46415;47.536;19.066;2022-11-20T06:43:21;8.50;;;6.07;;
60582;SDS011;46415;47.536;19.066;2022-11-20T06:46:24;15.02;;;6.72;;
60582;SDS011;46415;47.536;19.066;2022-11-20T06:49:27;9.85;;;5.93;;
60582;SDS011;46415;47.536;19.066;2022-11-20T06:52:29;12.32;;;6.57;;
60582;SDS011;46415;47.536;19.066;2022-11-20T06:55:32;11.82;;;5.87;;
60582;SDS011;46415;47.536;19.066;2022-11-20T06:58:35;9.18;;;5.75;;
60582;SDS011;46415;47.536;19.066;2022-11-20T07:01:39;9.57;;;5.12;;
60582;SDS011;46415;47.536;19.066;2022-11-20T07:04:41;8.77;;;3.80;;
60582;SDS011;46415;47.536;19.066;2022-11-20T07:07:44;10.10;;;5.07;;
60582;SDS011;46415;47.536;19.066;2022-11-20T07:10:56;8.63;;;5.87;;
60582;SDS011;46415;47.536;19.066;2022-11-20T07:14:00;10.00;;;6.12;;
60582;SDS011;46415;47.536;19.066;2022-11-20T07:17:03;11.88;;;6.28;;
60582;SDS011;46415;47.536;19.066;2022-11-20T07:20:05;7.82;;;5.85;;
60582;SDS011;46415;47.536;19.066;2022-11-20T07:23:09;8.20;;;6.15;;
60582;SDS011;46415;47.536;19.066;2022-11-20T07:26:11;7.45;;;4.68;;
60582;SDS011;46415;47.536;19.066;2022-11-20T07:29:15;7.75;;;5.18;;
60582;SDS011;46415;47.536;19.066;2022-11-20T07:32:18;9.95;;;5.82;;
60582;SDS011;46415;47.536;19.066;2022-11-20T07:35:22;9.05;;;5.12;;
60582;SDS011;46415;47.536;19.066;2022-11-20T07:38:25;10.27;;;6.05;;
60582;SDS011;46415;47.536;19.066;2022-11-20T07:41:28;12.63;;;5.32;;
60582;SDS011;46415;47.536;19.066;2022-11-20T07:44:31;9.57;;;5.30;;
60582;SDS011;46415;47.536;19.066;2022-11-20T07:47:36;10.35;;;5.55;;
60582;SDS011;46415;47.536;19.066;2022-11-20T07:50:39;12.65;;;6.50;;
60582;SDS011;46415;47.536;19.066;2022-11-20T07:53:44;7.78;;;4.93;;
60582;SDS011;46415;47.536;19.066;2022-11-20T07:56:46;12.95;;;6.25;;
60582;SDS011;46415;47.536;19.066;2022-11-20T07:59:50;10.27;;;6.03;;
60582;SDS011;46415;47.536;19.066;2022-11-20T08:02:52;10.82;;;5.57;;
60582;SDS011;46415;47.536;19.066;2022-11-20T08:05:57;10.00;;;5.40;;
60582;SDS011;46415;47.536;19.066;2022-11-20T08:09:00;14.15;;;6.15;;
60582;SDS011;46415;47.536;19.066;2022-11-20T08:12:03;8.25;;;5.50;;
60582;SDS011;46415;47.536;19.066;2022-11-20T08:15:24;8.93;;;5.22;;
60582;SDS011;46415;47.536;19.066;2022-11-20T08:18:27;11.32;;;6.72;;
60582;SDS011;46415;47.536;19.066;2022-11-20T08:21:33;6.80;;;4.72;;
60582;SDS011;46415;47.536;19.066;2022-11-20T08:24:39;6.62;;;4.43;;
60582;SDS011;46415;47.536;19.066;2022-11-20T08:27:42;8.35;;;5.93;;
60582;SDS011;46415;47.536;19.066;2022-11-20T08:30:45;9.18;;;4.72;;
60582;SDS011;46415;47.536;19.066;2022-11-20T08:33:48;10.77;;;6.05;;
60582;SDS011;46415;47.536;19.066;2022-11-20T08:36:50;12.05;;;6.05;;
60582;SDS011;46415;47.536;19.066;2022-11-20T08:39:53;10.82;;;4.82;;
60582;SDS011;46415;47.536;19.066;2022-11-20T08:42:58;9.32;;;5.95;;
60582;SDS011;46415;47.536;19.066;2022-11-20T08:46:01;14.30;;;6.35;;
60582;SDS011;46415;47.536;19.066;2022-11-20T08:49:04;12.63;;;6.60;;
60582;SDS011;46415;47.536;19.066;2022-11-20T08:52:08;14.45;;;6.82;;
60582;SDS011;46415;47.536;19.066;2022-11-20T08:55:11;16.10;;;7.57;;
60582;SDS011;46415;47.536;19.066;2022-11-20T08:58:13;16.15;;;7.53;;
60582;SDS011;46415;47.536;19.066;2022-11-20T09:01:16;13.57;;;8.05;;
60582;SDS011;46415;47.536;19.066;2022-11-20T09:04:19;14.80;;;6.45;;
60582;SDS011;46415;47.536;19.066;2022-11-20T09:07:22;13.90;;;7.65;;
60582;SDS011;46415;47.536;19.066;2022-11-20T09:10:25;16.87;;;8.13;;
60582;SDS011;46415;47.536;19.066;2022-11-20T09:13:31;14.60;;;7.00;;
60582;SDS011;46415;47.536;19.066;2022-11-20T09:16:35;13.18;;;8.05;;
60582;SDS011;46415;47.536;19.066;2022-11-20T09:19:38;12.95;;;7.05;;
60582;SDS011;46415;47.536;19.066;2022-11-20T09:22:41;17.45;;;6.93;;
60582;SDS011;46415;47.536;19.066;2022-11-20T09:25:43;14.20;;;7.22;;
60582;SDS011;46415;47.536;19.066;2022-11-20T09:28:46;14.23;;;7.93;;
60582;SDS011;46415;47.536;19.066;2022-11-20T09:31:49;14.60;;;7.62;;
60582;SDS011;46415;47.536;19.066;2022-11-20T09:34:52;11.10;;;6.32;;
60582;SDS011;46415;47.536;19.066;2022-11-20T09:37:54;10.32;;;6.47;;
60582;SDS011;46415;47.536;19.066;2022-11-20T09:40:58;13.95;;;7.10;;
60582;SDS011;46415;47.536;19.066;2022-11-20T09:47:41;8.93;;;6.12;;
60582;SDS011;46415;47.536;19.066;2022-11-20T09:51:00;11.43;;;6.68;;
60582;SDS011;46415;47.536;19.066;2022-11-20T09:54:22;15.10;;;8.38;;
60582;SDS011;46415;47.536;19.066;2022-11-20T09:57:48;18.58;;;7.50;;
60582;SDS011;46415;47.536;19.066;2022-11-20T10:00:54;18.87;;;9.27;;
60582;SDS011;46415;47.536;19.066;2022-11-20T10:04:04;11.35;;;6.37;;
60582;SDS011;46415;47.536;19.066;2022-11-20T10:07:16;10.60;;;6.90;;
60582;SDS011;46415;47.536;19.066;2022-11-20T10:10:45;14.10;;;7.57;;
60582;SDS011;46415;47.536;19.066;2022-11-20T10:20:52;17.75;;;7.70;;
60582;SDS011;46415;47.536;19.066;2022-11-20T10:24:29;9.57;;;7.40;;
60582;SDS011;46415;47.536;19.066;2022-11-20T10:27:39;13.62;;;7.25;;
60582;SDS011;46415;47.536;19.066;2022-11-20T10:31:09;12.50;;;6.68;;
60582;SDS011;46415;47.536;19.066;2022-11-20T10:34:21;11.02;;;7.62;;
60582;SDS011;46415;47.536;19.066;2022-11-20T10:37:29;13.93;;;7.25;;
60582;SDS011;46415;47.536;19.066;2022-11-20T10:40:40;14.13;;;7.80;;
60582;SDS011;46415;47.536;19.066;2022-11-20T10:43:46;13.93;;;7.80;;
60582;SDS011;46415;47.536;19.066;2022-11-20T10:46:50;15.43;;;8.15;;
60582;SDS011;46415;47.536;19.066;2022-11-20T10:49:54;12.30;;;7.25;;
60582;SDS011;46415;47.536;19.066;2022-11-20T10:56:19;16.85;;;7.72;;
60582;SDS011;46415;47.536;19.066;2022-11-20T11:02:49;10.20;;;6.43;;
60582;SDS011;46415;47.536;19.066;2022-11-20T11:09:16;13.77;;;7.22;;
60582;SDS011;46415;47.536;19.066;2022-11-20T11:12:24;13.38;;;8.23;;
60582;SDS011;46415;47.536;19.066;2022-11-20T11:15:39;13.30;;;6.60;;
60582;SDS011;46415;47.536;19.066;2022-11-20T11:18:43;11.32;;;6.40;;
60582;SDS011;46415;47.536;19.066;2022-11-20T11:21:46;14.52;;;8.20;;
60582;SDS011;46415;47.536;19.066;2022-11-20T11:24:56;12.57;;;7.32;;
60582;SDS011;46415;47.536;19.066;2022-11-20T11:28:00;18.30;;;8.10;;
60582;SDS011;46415;47.536;19.066;2022-11-20T11:31:05;15.35;;;7.57;;
60582;SDS011;46415;47.536;19.066;2022-11-20T11:34:11;15.73;;;9.23;;
60582;SDS011;46415;47.536;19.066;2022-11-20T11:37:17;12.95;;;7.30;;
60582;SDS011;46415;47.536;19.066;2022-11-20T11:40:24;14.18;;;7.47;;
60582;SDS011;46415;47.536;19.066;2022-11-20T11:43:35;14.60;;;6.62;;
60582;SDS011;46415;47.536;19.066;2022-11-20T11:46:58;11.65;;;7.43;;
60582;SDS011;46415;47.536;19.066;2022-11-20T11:53:25;15.43;;;7.65;;
60582;SDS011;46415;47.536;19.066;2022-11-20T11:56:30;14.35;;;7.50;;
60582;SDS011;46415;47.536;19.066;2022-11-20T11:59:49;19.80;;;8.82;;
60582;SDS011;46415;47.536;19.066;2022-11-20T12:03:11;15.45;;;8.63;;
60582;SDS011;46415;47.536;19.066;2022-11-20T12:06:19;16.95;;;7.82;;
60582;SDS011;46415;47.536;19.066;2022-11-20T12:09:23;16.48;;;8.38;;
60582;SDS011;46415;47.536;19.066;2022-11-20T12:12:31;12.30;;;8.02;;
60582;SDS011;46415;47.536;19.066;2022-11-20T12:15:38;12.18;;;8.15;;
60582;SDS011;46415;47.536;19.066;2022-11-20T12:18:51;14.27;;;8.60;;
60582;SDS011;46415;47.536;19.066;2022-11-20T12:28:30;15.43;;;9.52;;
60582;SDS011;46415;47.536;19.066;2022-11-20T12:49:17;18.70;;;8.80;;
60582;SDS011;46415;47.536;19.066;2022-11-20T13:06:35;12.85;;;7.47;;
60582;SDS011;46415;47.536;19.066;2022-11-20T13:09:45;16.90;;;7.50;;
60582;SDS011;46415;47.536;19.066;2022-11-20T13:12:54;15.60;;;8.48;;
60582;SDS011;46415;47.536;19.066;2022-11-20T13:16:08;14.87;;;8.30;;
60582;SDS011;46415;47.536;19.066;2022-11-20T13:19:19;13.27;;;7.55;;
60582;SDS011;46415;47.536;19.066;2022-11-20T13:22:26;22.98;;;9.57;;
60582;SDS011;46415;47.536;19.066;2022-11-20T13:25:35;14.48;;;7.15;;
60582;SDS011;46415;47.536;19.066;2022-11-20T13:28:39;16.25;;;7.87;;
60582;SDS011;46415;47.536;19.066;2022-11-20T13:31:43;16.17;;;8.88;;
60582;SDS011;46415;47.536;19.066;2022-11-20T13:34:55;15.60;;;8.70;;
60582;SDS011;46415;47.536;19.066;2022-11-20T13:38:00;18.87;;;9.57;;
60582;SDS011;46415;47.536;19.066;2022-11-20T13:41:03;16.08;;;7.75;;
60582;SDS011;46415;47.536;19.066;2022-11-20T13:47:34;15.20;;;7.93;;
60582;SDS011;46415;47.536;19.066;2022-11-20T13:54:38;19.30;;;8.77;;
60582;SDS011;46415;47.536;19.066;2022-11-20T14:04:29;10.85;;;7.00;;
60582;SDS011;46415;47.536;19.066;2022-11-20T14:07:39;14.95;;;7.68;;
60582;SDS011;46415;47.536;19.066;2022-11-20T14:10:44;14.07;;;7.22;;
60582;SDS011;46415;47.536;19.066;2022-11-20T14:14:21;16.80;;;8.43;;
60582;SDS011;46415;47.536;19.066;2022-11-20T14:17:30;16.12;;;8.38;;
60582;SDS011;46415;47.536;19.066;2022-11-20T14:20:35;13.85;;;6.85;;
60582;SDS011;46415;47.536;19.066;2022-11-20T14:23:40;20.73;;;8.80;;
60582;SDS011;46415;47.536;19.066;2022-11-20T14:26:42;19.92;;;8.98;;
60582;SDS011;46415;47.536;19.066;2022-11-20T14:29:47;16.65;;;8.43;;
60582;SDS011;46415;47.536;19.066;2022-11-20T14:32:56;16.20;;;9.10;;
60582;SDS011;46415;47.536;19.066;2022-11-20T14:36:03;10.80;;;7.43;;
60582;SDS011;46415;47.536;19.066;2022-11-20T14:39:08;17.52;;;9.45;;
60582;SDS011;46415;47.536;19.066;2022-11-20T14:42:14;12.63;;;7.53;;
60582;SDS011;46415;47.536;19.066;2022-11-20T14:45:19;16.10;;;8.43;;
60582;SDS011;46415;47.536;19.066;2022-11-20T14:48:26;11.45;;;6.72;;
60582;SDS011;46415;47.536;19.066;2022-11-20T14:51:40;18.60;;;7.60;;
60582;SDS011;46415;47.536;19.066;2022-11-20T14:54:49;16.65;;;9.13;;
60582;SDS011;46415;47.536;19.066;2022-11-20T14:58:06;17.17;;;8.40;;
60582;SDS011;46415;47.536;19.066;2022-11-20T15:01:26;14.57;;;7.78;;
60582;SDS011;46415;47.536;19.066;2022-11-20T15:04:30;13.88;;;7.20;;
60582;SDS011;46415;47.536;19.066;2022-11-20T15:07:35;19.23;;;9.45;;
60582;SDS011;46415;47.536;19.066;2022-11-20T15:10:44;20.50;;;9.63;;
60582;SDS011;46415;47.536;19.066;2022-11-20T15:13:49;19.42;;;10.07;;
60582;SDS011;46415;47.536;19.066;2022-11-20T15:16:52;12.73;;;7.95;;
60582;SDS011;46415;47.536;19.066;2022-11-20T15:19:55;12.70;;;7.25;;
60582;SDS011;46415;47.536;19.066;2022-11-20T15:22:58;15.85;;;8.45;;
60582;SDS011;46415;47.536;19.066;2022-11-20T15:26:01;19.60;;;9.20;;
60582;SDS011;46415;47.536;19.066;2022-11-20T15:29:13;18.85;;;9.63;;
60582;SDS011;46415;47.536;19.066;2022-11-20T15:32:20;12.02;;;8.27;;
60582;SDS011;46415;47.536;19.066;2022-11-20T15:35:23;17.75;;;9.00;;
60582;SDS011;46415;47.536;19.066;2022-11-20T15:38:26;18.02;;;8.25;;
60582;SDS011;46415;47.536;19.066;2022-11-20T15:41:29;19.30;;;7.87;;
60582;SDS011;46415;47.536;19.066;2022-11-20T15:44:32;14.20;;;7.60;;
60582;SDS011;46415;47.536;19.066;2022-11-20T15:47:34;17.52;;;8.52;;
60582;SDS011;46415;47.536;19.066;2022-11-20T15:50:46;14.95;;;8.55;;
60582;SDS011;46415;47.536;19.066;2022-11-20T15:53:55;12.20;;;7.07;;
60582;SDS011;46415;47.536;19.066;2022-11-20T15:56:58;13.07;;;8.90;;
60582;SDS011;46415;47.536;19.066;2022-11-20T16:00:02;13.40;;;8.05;;
60582;SDS011;46415;47.536;19.066;2022-11-20T16:03:12;14.50;;;9.70;;
60582;SDS011;46415;47.536;19.066;2022-11-20T16:06:15;17.05;;;8.23;;
60582;SDS011;46415;47.536;19.066;2022-11-20T16:09:18;12.93;;;8.13;;
60582;SDS011;46415;47.536;19.066;2022-11-20T16:12:21;12.75;;;7.10;;
60582;SDS011;46415;47.536;19.066;2022-11-20T16:15:43;15.82;;;10.18;;
60582;SDS011;46415;47.536;19.066;2022-11-20T16:18:53;16.62;;;10.00;;
60582;SDS011;46415;47.536;19.066;2022-11-20T16:21:57;20.08;;;9.70;;
60582;SDS011;46415;47.536;19.066;2022-11-20T16:25:04;17.35;;;8.55;;
60582;SDS011;46415;47.536;19.066;2022-11-20T16:28:07;16.17;;;9.43;;
60582;SDS011;46415;47.536;19.066;2022-11-20T16:31:11;17.85;;;9.23;;
60582;SDS011;46415;47.536;19.066;2022-11-20T16:34:15;17.50;;;8.52;;
60582;SDS011;46415;47.536;19.066;2022-11-20T16:37:19;14.35;;;8.20;;
60582;SDS011;46415;47.536;19.066;2022-11-20T16:40:23;17.75;;;7.95;;
60582;SDS011;46415;47.536;19.066;2022-11-20T16:43:26;17.08;;;8.77;;
60582;SDS011;46415;47.536;19.066;2022-11-20T16:46:29;13.80;;;8.60;;
60582;SDS011;46415;47.536;19.066;2022-11-20T16:49:33;17.12;;;9.80;;
60582;SDS011;46415;47.536;19.066;2022-11-20T16:52:36;18.80;;;7.72;;
60582;SDS011;46415;47.536;19.066;2022-11-20T16:55:39;11.90;;;7.60;;
60582;SDS011;46415;47.536;19.066;2022-11-20T16:58:42;14.23;;;7.95;;
60582;SDS011;46415;47.536;19.066;2022-11-20T17:01:49;17.03;;;8.17;;
60582;SDS011;46415;47.536;19.066;2022-11-20T17:04:52;16.87;;;9.38;;
60582;SDS011;46415;47.536;19.066;2022-11-20T17:07:54;16.27;;;10.00;;
60582;SDS011;46415;47.536;19.066;2022-11-20T17:11:03;19.25;;;9.23;;
60582;SDS011;46415;47.536;19.066;2022-11-20T17:14:06;16.48;;;7.45;;
60582;SDS011;46415;47.536;19.066;2022-11-20T17:17:09;17.00;;;8.73;;
60582;SDS011;46415;47.536;19.066;2022-11-20T17:20:12;16.10;;;7.53;;
60582;SDS011;46415;47.536;19.066;2022-11-20T17:23:17;12.70;;;7.97;;
60582;SDS011;46415;47.536;19.066;2022-11-20T17:26:21;13.90;;;8.82;;
60582;SDS011;46415;47.536;19.066;2022-11-20T17:29:25;20.65;;;8.68;;
60582;SDS011;46415;47.536;19.066;2022-11-20T17:32:28;14.20;;;7.78;;
60582;SDS011;46415;47.536;19.066;2022-11-20T17:35:30;14.27;;;9.20;;
60582;SDS011;46415;47.536;19.066;2022-11-20T17:38:34;10.48;;;7.37;;
60582;SDS011;46415;47.536;19.066;2022-11-20T17:41:37;15.45;;;9.05;;
60582;SDS011;46415;47.536;19.066;2022-11-20T17:44:40;16.33;;;8.40;;
60582;SDS011;46415;47.536;19.066;2022-11-20T17:47:43;15.40;;;8.43;;
60582;SDS011;46415;47.536;19.066;2022-11-20T17:50:48;17.10;;;9.13;;
60582;SDS011;46415;47.536;19.066;2022-11-20T17:53:52;16.95;;;8.63;;
60582;SDS011;46415;47.536;19.066;2022-11-20T17:56:57;18.00;;;8.48;;
60582;SDS011;46415;47.536;19.066;2022-11-20T18:00:18;13.70;;;10.07;;
60582;SDS011;46415;47.536;19.066;2022-11-20T18:03:23;13.05;;;7.10;;
60582;SDS011;46415;47.536;19.066;2022-11-20T18:06:26;12.80;;;7.65;;
60582;SDS011;46415;47.536;19.066;2022-11-20T18:09:30;15.25;;;8.13;;
60582;SDS011;46415;47.536;19.066;2022-11-20T18:12:33;13.27;;;7.40;;
60582;SDS011;46415;47.536;19.066;2022-11-20T18:15:35;17.73;;;7.47;;
60582;SDS011;46415;47.536;19.066;2022-11-20T18:18:38;16.92;;;9.57;;
60582;SDS011;46415;47.536;19.066;2022-11-20T18:21:41;17.35;;;8.75;;
60582;SDS011;46415;47.536;19.066;2022-11-20T18:24:43;10.95;;;8.40;;
60582;SDS011;46415;47.536;19.066;2022-11-20T18:27:47;14.98;;;7.57;;
60582;SDS011;46415;47.536;19.066;2022-11-20T18:30:50;26.90;;;9.20;;
60582;SDS011;46415;47.536;19.066;2022-11-20T18:33:53;16.27;;;7.97;;
60582;SDS011;46415;47.536;19.066;2022-11-20T18:36:56;14.20;;;8.05;;
60582;SDS011;46415;47.536;19.066;2022-11-20T18:39:59;12.13;;;7.68;;
60582;SDS011;46415;47.536;19.066;2022-11-20T18:43:02;16.85;;;9.55;;
60582;SDS011;46415;47.536;19.066;2022-11-20T18:46:23;16.42;;;8.55;;
60582;SDS011;46415;47.536;19.066;2022-11-20T18:49:26;19.05;;;9.65;;
60582;SDS011;46415;47.536;19.066;2022-11-20T18:52:30;13.38;;;8.20;;
60582;SDS011;46415;47.536;19.066;2022-11-20T18:55:35;18.12;;;7.72;;
60582;SDS011;46415;47.536;19.066;2022-11-20T18:58:38;15.40;;;9.82;;
60582;SDS011;46415;47.536;19.066;2022-11-20T19:01:42;15.82;;;9.13;;
60582;SDS011;46415;47.536;19.066;2022-11-20T19:04:45;13.50;;;9.02;;
60582;SDS011;46415;47.536;19.066;2022-11-20T19:07:48;16.30;;;8.73;;
60582;SDS011;46415;47.536;19.066;2022-11-20T19:10:51;11.20;;;7.03;;
60582;SDS011;46415;47.536;19.066;2022-11-20T19:13:53;14.87;;;8.63;;
60582;SDS011;46415;47.536;19.066;2022-11-20T19:16:56;19.42;;;8.77;;
60582;SDS011;46415;47.536;19.066;2022-11-20T19:19:59;17.75;;;9.20;;
60582;SDS011;46415;47.536;19.066;2022-11-20T19:23:02;16.70;;;8.90;;
60582;SDS011;46415;47.536;19.066;2022-11-20T19:26:04;15.55;;;8.63;;
60582;SDS011;46415;47.536;19.066;2022-11-20T19:29:12;16.67;;;8.70;;